createdAt,value
2019-06-15T00:01:45.815Z,3.67
2019-06-15T00:04:19.965Z,3.13
2019-06-15T00:06:53.907Z,3.13
2019-06-15T00:09:29.168Z,3.77
2019-06-15T00:12:02.966Z,3.00
2019-06-15T00:14:36.978Z,3.03
2019-06-15T00:17:10.984Z,3.33
2019-06-15T00:19:44.876Z,3.80
2019-06-15T00:22:18.546Z,3.30
2019-06-15T00:24:54.147Z,3.93
2019-06-15T00:27:28.135Z,3.33
2019-06-15T00:30:01.847Z,3.10
2019-06-15T00:32:37.742Z,3.00
2019-06-15T00:35:12.362Z,3.13
2019-06-15T00:37:46.678Z,2.77
2019-06-15T00:40:20.579Z,3.57
2019-06-15T00:42:54.707Z,3.10
2019-06-15T00:45:28.636Z,3.57
2019-06-15T00:48:02.613Z,3.30
2019-06-15T00:50:36.418Z,3.10
2019-06-15T00:53:10.446Z,2.60
2019-06-15T00:55:44.081Z,2.73
2019-06-15T00:58:17.841Z,3.03
2019-06-15T01:00:51.472Z,3.10
2019-06-15T01:03:26.986Z,2.90
2019-06-15T01:06:00.665Z,3.77
2019-06-15T01:08:34.409Z,2.90
2019-06-15T01:11:08.462Z,2.90
2019-06-15T01:13:43.881Z,2.77
2019-06-15T01:16:17.763Z,3.33
2019-06-15T01:18:51.510Z,3.10
2019-06-15T01:21:25.275Z,4.03
2019-06-15T01:24:00.941Z,3.17
2019-06-15T01:26:34.527Z,3.27
2019-06-15T01:29:08.354Z,3.20
2019-06-15T01:31:42.023Z,4.20
2019-06-15T01:34:15.814Z,3.50
2019-06-15T01:36:52.815Z,4.10
2019-06-15T01:39:26.448Z,4.30
2019-06-15T01:42:00.438Z,5.40
2019-06-15T01:44:35.383Z,5.30
2019-06-15T01:47:09.109Z,5.73
2019-06-15T01:49:42.821Z,5.43
2019-06-15T01:52:17.651Z,6.43
2019-06-15T01:54:51.418Z,6.50
2019-06-15T01:57:25.153Z,5.70
2019-06-15T01:59:58.897Z,5.90
2019-06-15T02:02:32.595Z,6.13
2019-06-15T02:05:06.890Z,6.57
2019-06-15T02:07:42.483Z,5.77
2019-06-15T02:10:19.469Z,5.47
2019-06-15T02:12:53.216Z,6.90
2019-06-15T02:15:29.197Z,6.27
2019-06-15T02:18:02.942Z,5.60
2019-06-15T02:20:36.686Z,6.30
2019-06-15T02:23:10.721Z,6.63
2019-06-15T02:25:46.361Z,6.83
2019-06-15T02:28:20.091Z,6.70
2019-06-15T02:30:54.942Z,5.53
2019-06-15T02:33:28.711Z,6.73
2019-06-15T02:36:02.483Z,7.10
2019-06-15T02:38:36.562Z,6.33
2019-06-15T02:41:10.506Z,6.70
2019-06-15T02:43:44.193Z,6.87
2019-06-15T02:46:17.895Z,7.50
2019-06-15T02:48:51.493Z,6.67
2019-06-15T02:51:25.602Z,7.17
2019-06-15T02:53:59.480Z,6.47
2019-06-15T02:56:33.192Z,6.70
2019-06-15T02:59:07.131Z,6.30
2019-06-15T03:01:41.007Z,6.60
2019-06-15T03:04:15.693Z,6.77
2019-06-15T03:06:50.064Z,6.87
2019-06-15T03:09:25.641Z,5.93
2019-06-15T03:12:01.151Z,7.10
2019-06-15T03:14:36.146Z,7.40
2019-06-15T03:17:09.891Z,9.77
2019-06-15T03:19:43.689Z,9.63
2019-06-15T03:22:17.785Z,10.63
2019-06-15T03:24:51.422Z,10.33
2019-06-15T03:27:28.709Z,11.50
2019-06-15T03:30:02.446Z,12.27
2019-06-15T03:32:36.155Z,12.40
2019-06-15T03:35:11.232Z,11.97
2019-06-15T03:37:46.096Z,11.27
2019-06-15T03:40:21.026Z,11.77
2019-06-15T03:42:55.861Z,12.80
2019-06-15T03:45:30.839Z,12.10
2019-06-15T03:48:04.567Z,12.10
2019-06-15T03:50:38.406Z,12.00
2019-06-15T03:53:12.142Z,11.20
2019-06-15T03:55:46.224Z,11.70
2019-06-15T03:58:19.873Z,12.23
2019-06-15T04:01:18.814Z,12.37
2019-06-15T04:03:52.530Z,12.43
2019-06-15T04:06:27.548Z,11.03
2019-06-15T04:09:03.977Z,10.50
2019-06-15T04:11:38.663Z,10.93
2019-06-15T04:14:12.344Z,11.47
2019-06-15T04:16:50.053Z,11.20
2019-06-15T04:19:25.384Z,12.07
2019-06-15T04:21:59.912Z,11.43
2019-06-15T04:24:34.761Z,11.00
2019-06-15T04:27:08.467Z,11.63
2019-06-15T04:29:45.380Z,10.10
2019-06-15T04:32:19.007Z,10.70
2019-06-15T04:34:53.097Z,9.50
2019-06-15T04:37:27.092Z,10.97
2019-06-15T04:40:00.863Z,10.60
2019-06-15T04:42:37.593Z,11.13
2019-06-15T04:45:12.561Z,12.60
2019-06-15T04:47:47.825Z,12.77
2019-06-15T04:50:23.070Z,13.80
2019-06-15T04:52:56.838Z,12.20
2019-06-15T04:55:30.654Z,13.10
2019-06-15T04:58:04.515Z,12.70
2019-06-15T05:00:38.299Z,12.60
2019-06-15T05:03:12.163Z,13.63
2019-06-15T05:05:47.717Z,11.93
2019-06-15T05:08:21.369Z,13.30
2019-06-15T05:11:00.036Z,12.80
2019-06-15T05:13:32.132Z,12.33
2019-06-15T05:16:05.865Z,13.07
2019-06-15T05:18:39.563Z,12.47
2019-06-15T05:21:13.349Z,12.27
2019-06-15T05:23:47.092Z,13.50
2019-06-15T05:26:20.977Z,11.03
2019-06-15T05:28:54.867Z,12.00
2019-06-15T05:31:28.533Z,12.43
2019-06-15T05:34:02.295Z,12.40
2019-06-15T05:36:36.221Z,11.73
2019-06-15T05:39:10.529Z,12.17
2019-06-15T05:41:44.870Z,13.47
2019-06-15T05:44:20.514Z,11.70
2019-06-15T05:46:54.443Z,12.70
2019-06-15T05:49:28.304Z,12.10
2019-06-15T05:52:01.944Z,13.50
2019-06-15T05:54:35.878Z,12.67
2019-06-15T05:57:21.215Z,13.60
2019-06-15T05:59:46.124Z,13.33
2019-06-15T06:02:24.529Z,12.50
2019-06-15T06:04:56.786Z,13.30
2019-06-15T06:07:30.771Z,14.77
2019-06-15T06:10:05.200Z,14.80
2019-06-15T06:12:39.167Z,13.83
2019-06-15T06:15:15.961Z,14.77
2019-06-15T06:17:49.751Z,15.90
2019-06-15T06:20:23.479Z,16.10
2019-06-15T06:22:57.324Z,16.33
2019-06-15T06:25:32.841Z,16.53
2019-06-15T06:28:06.917Z,18.50
2019-06-15T06:30:40.654Z,18.97
2019-06-15T06:33:14.695Z,19.10
2019-06-15T06:35:48.422Z,19.10
2019-06-15T06:38:24.248Z,19.83
2019-06-15T06:40:58.320Z,20.83
2019-06-15T06:43:35.577Z,21.17
2019-06-15T06:46:09.346Z,20.47
2019-06-15T06:48:44.737Z,21.80
2019-06-15T06:51:19.379Z,22.60
2019-06-15T06:53:53.053Z,22.30
2019-06-15T06:56:26.957Z,21.67
2019-06-15T06:59:00.662Z,23.97
2019-06-15T07:01:34.345Z,24.73
2019-06-15T07:04:08.097Z,25.00
2019-06-15T07:06:41.751Z,24.67
2019-06-15T07:09:15.398Z,24.20
2019-06-15T07:11:50.926Z,25.10
2019-06-15T07:14:24.532Z,24.17
2019-06-15T07:16:58.270Z,24.00
2019-06-15T07:19:31.946Z,24.50
2019-06-15T07:22:05.909Z,25.50
2019-06-15T07:24:39.787Z,24.60
2019-06-15T07:27:13.764Z,25.30
2019-06-15T07:29:47.456Z,24.07
2019-06-15T07:32:21.068Z,22.60
2019-06-15T07:34:55.818Z,21.60
2019-06-15T07:37:29.495Z,21.73
2019-06-15T07:40:05.118Z,21.97
2019-06-15T07:42:39.680Z,22.07
2019-06-15T07:45:14.411Z,21.60
2019-06-15T07:47:49.194Z,23.00
2019-06-15T07:50:22.829Z,21.10
2019-06-15T07:52:58.325Z,19.70
2019-06-15T07:55:32.058Z,18.90
2019-06-15T07:58:05.897Z,18.83
2019-06-15T08:00:39.602Z,18.73
2019-06-15T08:03:13.669Z,17.57
2019-06-15T08:05:47.777Z,19.03
2019-06-15T08:08:22.552Z,18.97
2019-06-15T08:10:56.285Z,17.30
2019-06-15T08:13:31.074Z,18.40
2019-06-15T08:16:04.869Z,18.30
2019-06-15T08:18:38.571Z,19.10
2019-06-15T08:21:13.499Z,17.73
2019-06-15T08:23:47.366Z,19.50
2019-06-15T08:26:21.973Z,19.93
2019-06-15T08:28:55.592Z,19.40
2019-06-15T08:31:29.396Z,17.77
2019-06-15T08:34:03.250Z,19.07
2019-06-15T08:36:37.082Z,19.80
2019-06-15T08:39:12.965Z,18.20
2019-06-15T08:41:46.810Z,19.90
2019-06-15T08:44:21.677Z,18.43
2019-06-15T08:46:59.445Z,19.30
2019-06-15T08:49:33.332Z,17.43
2019-06-15T08:52:07.215Z,15.67
2019-06-15T08:54:43.864Z,17.53
2019-06-15T08:57:17.574Z,16.90
2019-06-15T08:59:53.329Z,17.87
2019-06-15T09:02:30.002Z,16.40
2019-06-15T09:05:05.857Z,15.07
2019-06-15T09:07:39.477Z,14.77
2019-06-15T09:10:15.637Z,15.83
2019-06-15T09:12:50.751Z,15.40
2019-06-15T09:15:57.427Z,15.00
2019-06-15T09:18:34.006Z,13.87
2019-06-15T09:21:07.799Z,14.00
2019-06-15T09:23:43.443Z,13.90
2019-06-15T09:26:17.268Z,13.20
2019-06-15T09:28:51.111Z,12.70
2019-06-15T09:31:25.165Z,11.60
2019-06-15T09:33:58.902Z,11.80
2019-06-15T09:36:34.797Z,10.50
2019-06-15T09:39:09.688Z,10.40
2019-06-15T09:41:43.607Z,10.73
2019-06-15T09:44:17.687Z,10.60
2019-06-15T09:46:53.243Z,10.67
2019-06-15T09:49:27.124Z,11.63
2019-06-15T09:52:02.589Z,10.83
2019-06-15T09:54:37.597Z,10.47
2019-06-15T09:57:11.383Z,9.93
2019-06-15T09:59:45.664Z,9.07
2019-06-15T10:02:19.525Z,9.43
2019-06-15T10:04:55.063Z,9.40
2019-06-15T10:07:28.880Z,9.30
2019-06-15T10:10:04.775Z,8.83
2019-06-15T10:12:38.658Z,8.30
2019-06-15T10:15:15.877Z,9.13
2019-06-15T10:17:49.550Z,8.40
2019-06-15T10:20:23.300Z,8.33
2019-06-15T10:22:57.115Z,8.00
2019-06-15T10:25:31.977Z,7.10
2019-06-15T10:28:07.302Z,7.20
2019-06-15T10:30:41.008Z,6.80
2019-06-15T10:33:16.548Z,6.70
2019-06-15T10:35:50.228Z,6.50
2019-06-15T10:38:26.897Z,6.20
2019-06-15T10:41:00.858Z,6.57
2019-06-15T10:43:34.586Z,6.80
2019-06-15T10:46:08.383Z,7.50
2019-06-15T10:48:42.140Z,6.83
2019-06-15T10:51:15.791Z,8.17
2019-06-15T10:53:49.498Z,8.97
2019-06-15T10:56:23.399Z,8.90
2019-06-15T10:58:59.214Z,8.40
2019-06-15T11:01:32.932Z,8.80
2019-06-15T11:04:07.897Z,9.70
2019-06-15T11:06:42.770Z,9.60
2019-06-15T11:09:16.460Z,9.10
2019-06-15T11:11:50.436Z,8.50
2019-06-15T11:14:24.980Z,9.07
2019-06-15T11:17:01.063Z,8.80
2019-06-15T11:19:36.419Z,9.07
2019-06-15T11:22:10.324Z,9.17
2019-06-15T11:24:43.994Z,9.70
2019-06-15T11:27:18.855Z,8.63
2019-06-15T11:29:52.769Z,9.53
2019-06-15T11:32:26.792Z,8.73
2019-06-15T11:35:03.225Z,8.60
2019-06-15T11:37:36.959Z,9.87
2019-06-15T11:40:12.174Z,8.97
2019-06-15T11:42:49.720Z,9.60
2019-06-15T11:45:23.183Z,8.57
2019-06-15T11:47:57.851Z,9.50
2019-06-15T11:50:31.862Z,8.83
2019-06-15T11:53:05.708Z,8.80
2019-06-15T11:55:41.450Z,9.97
2019-06-15T11:58:15.304Z,8.50
2019-06-15T12:00:50.582Z,10.07
2019-06-15T12:03:24.585Z,9.80
2019-06-15T12:05:58.646Z,9.40
2019-06-15T12:08:32.328Z,9.20
2019-06-15T12:11:06.101Z,9.90
2019-06-15T12:13:39.914Z,12.93
2019-06-15T12:16:13.671Z,13.00
2019-06-15T12:18:47.376Z,15.30
2019-06-15T12:21:22.658Z,16.90
2019-06-15T12:23:58.320Z,15.23
2019-06-15T12:26:32.116Z,15.47
2019-06-15T12:29:09.416Z,15.43
2019-06-15T12:31:43.148Z,13.70
2019-06-15T12:34:16.986Z,13.10
2019-06-15T12:36:50.772Z,13.07
2019-06-15T12:39:24.455Z,14.13
2019-06-15T12:41:58.310Z,13.37
2019-06-15T12:44:33.109Z,11.90
2019-06-15T12:47:06.845Z,9.47
2019-06-15T12:49:40.641Z,9.60
2019-06-15T12:52:14.410Z,8.80
2019-06-15T12:54:48.148Z,9.13
2019-06-15T12:57:21.856Z,8.27
2019-06-15T12:59:55.565Z,8.27
2019-06-15T13:02:29.430Z,7.57
2019-06-15T13:05:03.140Z,8.30
2019-06-15T13:07:36.946Z,8.17
2019-06-15T13:10:11.472Z,8.10
2019-06-15T13:12:45.270Z,8.30
2019-06-15T13:15:20.324Z,7.80
2019-06-15T13:17:55.159Z,7.90
2019-06-15T13:20:32.000Z,8.03
2019-06-15T13:23:06.044Z,7.33
2019-06-15T13:25:39.903Z,7.10
2019-06-15T13:28:13.554Z,6.20
2019-06-15T13:30:47.626Z,6.10
2019-06-15T13:33:21.448Z,5.90
2019-06-15T13:35:55.223Z,6.13
2019-06-15T13:38:28.995Z,5.43
2019-06-15T13:41:03.924Z,5.23
2019-06-15T13:43:37.860Z,5.53
2019-06-15T13:46:11.757Z,4.80
2019-06-15T13:48:45.705Z,4.97
2019-06-15T13:51:19.483Z,4.37
2019-06-15T13:53:53.608Z,4.90
2019-06-15T13:56:27.364Z,4.27
2019-06-15T13:59:01.286Z,4.00
2019-06-15T14:01:36.791Z,3.53
2019-06-15T14:04:10.876Z,3.37
2019-06-15T14:06:46.412Z,4.07
2019-06-15T14:09:23.122Z,3.80
2019-06-15T14:11:56.993Z,4.40
2019-06-15T14:14:30.735Z,4.13
2019-06-15T14:17:04.811Z,2.70
2019-06-15T14:19:39.543Z,3.77
2019-06-15T14:22:13.524Z,3.60
2019-06-15T14:24:48.289Z,3.07
2019-06-15T14:27:22.212Z,3.83
2019-06-15T14:29:56.108Z,3.00
2019-06-15T14:32:30.000Z,3.53
2019-06-15T14:35:03.791Z,3.10
2019-06-15T14:37:38.496Z,3.50
2019-06-15T14:40:12.965Z,2.87
2019-06-15T14:42:46.851Z,3.60
2019-06-15T14:45:21.939Z,3.57
2019-06-15T14:47:55.724Z,3.47
2019-06-15T14:50:30.503Z,3.77
2019-06-15T14:53:04.669Z,3.67
2019-06-15T14:55:38.733Z,3.53
2019-06-15T14:58:13.476Z,4.60
2019-06-15T15:00:47.431Z,4.00
2019-06-15T15:03:21.099Z,3.50
2019-06-15T15:05:56.738Z,3.40
2019-06-15T15:08:30.473Z,3.00
2019-06-15T15:11:06.629Z,3.00
2019-06-15T15:13:40.849Z,2.80
2019-06-15T15:16:17.597Z,2.80
2019-06-15T15:18:52.117Z,3.17
2019-06-15T15:21:26.791Z,3.20
2019-06-15T15:24:00.639Z,2.97
2019-06-15T15:26:36.922Z,2.80
2019-06-15T15:29:09.806Z,3.00
2019-06-15T15:31:46.467Z,2.87
2019-06-15T15:34:21.513Z,2.83
2019-06-15T15:36:58.383Z,2.43
2019-06-15T15:39:32.420Z,2.67
2019-06-15T15:42:06.607Z,2.40
2019-06-15T15:44:43.557Z,2.70
2019-06-15T15:47:17.477Z,2.63
2019-06-15T15:49:51.114Z,2.73
2019-06-15T15:52:27.641Z,2.70
2019-06-15T15:55:02.627Z,2.60
2019-06-15T15:57:36.664Z,2.20
2019-06-15T16:00:11.002Z,2.67
2019-06-15T16:02:51.562Z,2.40
2019-06-15T16:05:20.372Z,2.77
2019-06-15T16:07:56.929Z,2.87
2019-06-15T16:10:32.179Z,2.50
2019-06-15T16:13:06.729Z,2.80
2019-06-15T16:15:40.624Z,3.00
2019-06-15T16:18:17.150Z,3.00
2019-06-15T16:20:51.732Z,2.67
2019-06-15T16:23:27.374Z,2.20
2019-06-15T16:26:03.344Z,2.70
2019-06-15T16:28:37.331Z,3.10
2019-06-15T16:31:14.128Z,2.60
2019-06-15T16:33:48.017Z,2.43
2019-06-15T16:36:24.019Z,1.60
2019-06-15T16:38:58.808Z,1.90
2019-06-15T16:41:36.473Z,1.20
2019-06-15T16:44:10.934Z,1.30
2019-06-15T16:46:44.786Z,1.20
2019-06-15T16:49:20.772Z,0.83
2019-06-15T16:51:56.499Z,1.17
2019-06-15T16:54:31.825Z,1.20
2019-06-15T16:57:06.125Z,0.70
2019-06-15T16:59:40.032Z,0.57
2019-06-15T17:02:17.155Z,0.60
2019-06-15T17:04:52.058Z,0.50
2019-06-15T17:07:27.583Z,0.80
2019-06-15T17:10:01.293Z,1.17
2019-06-15T17:12:37.325Z,1.00
2019-06-15T17:15:12.459Z,0.90
2019-06-15T17:17:46.283Z,0.90
2019-06-15T17:20:26.673Z,1.00
2019-06-15T17:23:00.584Z,1.30
2019-06-15T17:25:36.283Z,1.20
2019-06-15T17:28:11.123Z,1.73
2019-06-15T17:30:45.265Z,2.73
2019-06-15T17:33:33.271Z,0.90
2019-06-15T17:36:02.550Z,3.37
2019-06-15T17:38:30.951Z,3.20
2019-06-15T17:41:04.935Z,1.50
2019-06-15T17:43:38.886Z,5.00
2019-06-15T17:46:12.627Z,1.43
2019-06-15T17:48:46.829Z,0.70
2019-06-15T17:51:20.848Z,0.80
2019-06-15T17:53:56.340Z,0.90
2019-06-15T17:56:30.453Z,0.90
2019-06-15T17:59:06.519Z,0.90
2019-06-15T18:01:40.629Z,1.20
2019-06-15T18:04:16.496Z,0.83
2019-06-15T18:06:49.988Z,0.70
2019-06-15T18:09:25.902Z,0.70
2019-06-15T18:12:00.720Z,0.70
2019-06-15T18:14:36.744Z,0.77
2019-06-15T18:17:10.706Z,1.30
2019-06-15T18:19:46.961Z,1.23
2019-06-15T18:22:20.450Z,1.00
2019-06-15T18:24:56.771Z,1.30
2019-06-15T18:27:37.054Z,1.17
2019-06-15T18:30:10.709Z,0.80
2019-06-15T18:32:46.634Z,0.67
2019-06-15T18:35:20.553Z,1.10
2019-06-15T18:37:55.982Z,1.00
2019-06-15T18:40:31.258Z,1.00
2019-06-15T18:43:07.355Z,1.00
2019-06-15T18:45:40.636Z,1.23
2019-06-15T18:48:16.770Z,0.90
2019-06-15T18:50:50.273Z,1.07
2019-06-15T18:53:23.903Z,0.97
2019-06-15T18:55:57.967Z,1.10
2019-06-15T18:58:32.621Z,1.30
2019-06-15T19:01:07.583Z,1.00
2019-06-15T19:03:42.765Z,1.30
2019-06-15T19:06:16.892Z,1.10
2019-06-15T19:08:53.707Z,1.27
2019-06-15T19:13:47.971Z,1.13
2019-06-15T19:16:22.393Z,1.60
2019-06-15T19:18:56.708Z,2.20
2019-06-15T19:21:30.478Z,1.30
2019-06-15T19:24:07.232Z,1.00
2019-06-15T19:26:41.703Z,1.30
2019-06-15T19:29:17.139Z,1.23
2019-06-15T19:31:54.287Z,1.17
2019-06-15T19:34:43.145Z,1.17
2019-06-15T19:37:06.733Z,1.30
2019-06-15T19:39:40.300Z,1.50
2019-06-15T19:42:14.610Z,1.00
2019-06-15T19:44:51.695Z,1.10
2019-06-15T19:47:26.577Z,1.40
2019-06-15T19:50:00.795Z,1.60
2019-06-15T19:52:38.747Z,1.40
2019-06-15T19:55:16.473Z,1.43
2019-06-15T19:57:52.243Z,1.57
2019-06-15T20:00:27.172Z,1.30
2019-06-15T20:03:02.791Z,1.37
2019-06-15T20:05:37.293Z,1.73
2019-06-15T20:08:13.484Z,1.20
2019-06-15T20:10:47.497Z,1.50
2019-06-15T20:13:21.405Z,1.90
2019-06-15T20:15:57.271Z,1.57
2019-06-15T20:18:32.588Z,1.50
2019-06-15T20:21:08.441Z,1.50
2019-06-15T20:23:42.057Z,1.50
2019-06-15T20:26:16.145Z,1.43
2019-06-15T20:28:51.613Z,1.47
2019-06-15T20:31:27.248Z,2.40
2019-06-15T20:34:00.984Z,1.87
2019-06-15T20:36:39.402Z,2.10
2019-06-15T20:39:16.421Z,2.20
2019-06-15T20:41:51.434Z,2.20
2019-06-15T20:44:26.111Z,2.07
2019-06-15T20:46:59.942Z,2.07
2019-06-15T20:49:33.920Z,1.90
2019-06-15T20:52:07.589Z,2.00
2019-06-15T20:54:43.198Z,2.20
2019-06-15T20:57:17.886Z,1.73
2019-06-15T20:59:56.348Z,1.70
2019-06-15T21:02:29.719Z,2.40
2019-06-15T21:05:03.634Z,2.50
2019-06-15T21:07:38.273Z,3.13
2019-06-15T21:10:16.026Z,3.07
2019-06-15T21:12:50.135Z,2.87
2019-06-15T21:15:28.814Z,2.60
2019-06-15T21:18:03.111Z,2.60
2019-06-15T21:20:36.920Z,2.67
2019-06-15T21:23:11.870Z,2.40
2019-06-15T21:25:46.748Z,2.40
2019-06-15T21:28:20.715Z,2.73
2019-06-15T21:30:55.374Z,3.23
2019-06-15T21:33:29.108Z,3.77
2019-06-15T21:36:02.888Z,3.03
2019-06-15T21:38:36.261Z,2.00
2019-06-15T21:41:11.696Z,1.80
2019-06-15T21:43:47.183Z,1.70
2019-06-15T21:46:20.928Z,1.47
2019-06-15T21:48:56.453Z,1.10
2019-06-15T21:51:36.509Z,1.50
2019-06-15T21:54:09.649Z,1.30
2019-06-15T21:56:43.726Z,1.40
2019-06-15T21:59:19.378Z,1.40
2019-06-15T22:01:53.223Z,1.10
2019-06-15T22:04:27.123Z,1.40
2019-06-15T22:07:02.556Z,1.50
2019-06-15T22:09:36.546Z,1.40
2019-06-15T22:12:10.562Z,1.40
2019-06-15T22:14:46.502Z,1.50
2019-06-15T22:17:20.888Z,1.20
2019-06-15T22:19:56.929Z,1.30
2019-06-15T22:22:32.381Z,1.20
2019-06-15T22:25:07.059Z,1.40
2019-06-15T22:27:40.970Z,1.27
2019-06-15T22:30:16.970Z,1.60
2019-06-15T22:32:51.001Z,2.00
2019-06-15T22:35:26.919Z,1.60
2019-06-15T22:38:00.303Z,1.90
2019-06-15T22:40:36.349Z,1.47
2019-06-15T22:43:09.745Z,1.80
2019-06-15T22:45:46.971Z,2.10
2019-06-15T22:48:19.046Z,2.20
2019-06-15T22:50:53.116Z,2.43
2019-06-15T22:53:28.621Z,2.10
2019-06-15T22:56:02.311Z,1.80
2019-06-15T22:58:36.092Z,2.07
2019-06-15T23:01:10.929Z,2.00
2019-06-15T23:03:46.621Z,1.80
2019-06-15T23:06:34.740Z,2.30
2019-06-15T23:08:58.771Z,2.60
2019-06-15T23:11:32.524Z,2.13
2019-06-15T23:14:06.791Z,2.27
2019-06-15T23:16:40.883Z,2.37
2019-06-15T23:19:17.149Z,1.60
2019-06-15T23:21:52.685Z,1.73
2019-06-15T23:24:27.443Z,2.07
2019-06-15T23:27:01.272Z,1.60
2019-06-15T23:29:37.107Z,2.00
2019-06-15T23:32:10.945Z,1.80
2019-06-15T23:34:44.611Z,1.97
2019-06-15T23:37:20.577Z,2.20
2019-06-15T23:40:11.866Z,2.10
2019-06-15T23:42:47.561Z,1.97
2019-06-15T23:45:23.374Z,1.77
2019-06-15T23:47:57.592Z,2.57
2019-06-15T23:50:32.888Z,1.80
2019-06-15T23:53:06.952Z,1.67
2019-06-15T23:55:43.619Z,1.93
2019-06-15T23:58:18.273Z,1.93
